sensor_id;sensor_type;location;lat;lon;timestamp;P1;durP1;ratioP1;P2;durP2;ratioP2
64959;SDS011;51487;52.266;10.542;2023-11-19T00:00:15;1.20;;;1.20;;
64959;SDS011;51487;52.266;10.542;2023-11-19T00:02:42;1.23;;;1.20;;
64959;SDS011;51487;52.266;10.542;2023-11-19T00:05:07;1.40;;;1.30;;
64959;SDS011;51487;52.266;10.542;2023-11-19T00:07:36;1.50;;;1.40;;
64959;SDS011;51487;52.266;10.542;2023-11-19T00:10:02;1.15;;;1.15;;
64959;SDS011;51487;52.266;10.542;2023-11-19T00:12:31;1.65;;;1.40;;
64959;SDS011;51487;52.266;10.542;2023-11-19T00:14:57;1.30;;;1.20;;
64959;SDS011;51487;52.266;10.542;2023-11-19T00:17:23;1.20;;;1.20;;
64959;SDS011;51487;52.266;10.542;2023-11-19T00:19:48;1.10;;;1.10;;
64959;SDS011;51487;52.266;10.542;2023-11-19T00:22:16;1.17;;;1.17;;
64959;SDS011;51487;52.266;10.542;2023-11-19T00:24:42;1.40;;;1.30;;
64959;SDS011;51487;52.266;10.542;2023-11-19T00:27:07;1.40;;;1.30;;
64959;SDS011;51487;52.266;10.542;2023-11-19T00:29:33;1.55;;;1.38;;
64959;SDS011;51487;52.266;10.542;2023-11-19T00:31:58;1.10;;;1.10;;
64959;SDS011;51487;52.266;10.542;2023-11-19T00:34:24;1.20;;;1.20;;
64959;SDS011;51487;52.266;10.542;2023-11-19T00:36:50;1.38;;;1.25;;
64959;SDS011;51487;52.266;10.542;2023-11-19T00:39:15;1.65;;;1.15;;
64959;SDS011;51487;52.266;10.542;2023-11-19T00:41:41;2.28;;;1.25;;
64959;SDS011;51487;52.266;10.542;2023-11-19T00:44:06;1.00;;;1.00;;
64959;SDS011;51487;52.266;10.542;2023-11-19T00:46:32;1.30;;;1.20;;
64959;SDS011;51487;52.266;10.542;2023-11-19T00:48:57;1.10;;;1.10;;
64959;SDS011;51487;52.266;10.542;2023-11-19T00:51:24;1.30;;;1.20;;
64959;SDS011;51487;52.266;10.542;2023-11-19T00:53:51;1.08;;;1.08;;
64959;SDS011;51487;52.266;10.542;2023-11-19T00:56:20;1.10;;;1.10;;
64959;SDS011;51487;52.266;10.542;2023-11-19T00:58:45;1.38;;;1.20;;
64959;SDS011;51487;52.266;10.542;2023-11-19T01:01:11;1.00;;;1.00;;
64959;SDS011;51487;52.266;10.542;2023-11-19T01:03:37;1.05;;;1.05;;
64959;SDS011;51487;52.266;10.542;2023-11-19T01:06:03;1.25;;;1.20;;
64959;SDS011;51487;52.266;10.542;2023-11-19T01:08:29;1.00;;;1.00;;
64959;SDS011;51487;52.266;10.542;2023-11-19T01:10:55;1.00;;;1.00;;
64959;SDS011;51487;52.266;10.542;2023-11-19T01:13:20;1.10;;;1.05;;
64959;SDS011;51487;52.266;10.542;2023-11-19T01:15:46;1.17;;;1.10;;
64959;SDS011;51487;52.266;10.542;2023-11-19T01:18:12;1.00;;;1.00;;
64959;SDS011;51487;52.266;10.542;2023-11-19T01:20:38;0.90;;;0.90;;
64959;SDS011;51487;52.266;10.542;2023-11-19T01:23:04;1.00;;;1.00;;
64959;SDS011;51487;52.266;10.542;2023-11-19T01:25:30;1.30;;;1.20;;
64959;SDS011;51487;52.266;10.542;2023-11-19T01:27:55;1.00;;;1.00;;
64959;SDS011;51487;52.266;10.542;2023-11-19T01:30:23;1.20;;;1.10;;
64959;SDS011;51487;52.266;10.542;2023-11-19T01:32:49;1.20;;;1.10;;
64959;SDS011;51487;52.266;10.542;2023-11-19T01:35:15;1.00;;;1.00;;
64959;SDS011;51487;52.266;10.542;2023-11-19T01:37:40;1.00;;;1.00;;
64959;SDS011;51487;52.266;10.542;2023-11-19T01:40:06;1.00;;;1.00;;
64959;SDS011;51487;52.266;10.542;2023-11-19T01:42:38;1.08;;;1.08;;
64959;SDS011;51487;52.266;10.542;2023-11-19T01:45:04;1.27;;;1.27;;
64959;SDS011;51487;52.266;10.542;2023-11-19T01:47:32;1.05;;;1.05;;
64959;SDS011;51487;52.266;10.542;2023-11-19T01:49:59;1.17;;;1.08;;
64959;SDS011;51487;52.266;10.542;2023-11-19T01:52:25;1.20;;;1.10;;
64959;SDS011;51487;52.266;10.542;2023-11-19T01:54:52;1.00;;;1.00;;
64959;SDS011;51487;52.266;10.542;2023-11-19T01:57:20;1.20;;;1.20;;
64959;SDS011;51487;52.266;10.542;2023-11-19T01:59:49;1.10;;;1.10;;
64959;SDS011;51487;52.266;10.542;2023-11-19T02:02:17;3.40;;;1.10;;
64959;SDS011;51487;52.266;10.542;2023-11-19T02:04:45;1.30;;;1.20;;
64959;SDS011;51487;52.266;10.542;2023-11-19T02:07:14;0.93;;;0.93;;
64959;SDS011;51487;52.266;10.542;2023-11-19T02:09:43;1.85;;;1.10;;
64959;SDS011;51487;52.266;10.542;2023-11-19T02:12:09;2.88;;;1.00;;
64959;SDS011;51487;52.266;10.542;2023-11-19T02:14:38;1.10;;;1.00;;
64959;SDS011;51487;52.266;10.542;2023-11-19T02:17:04;0.93;;;0.93;;
64959;SDS011;51487;52.266;10.542;2023-11-19T02:19:30;1.10;;;1.10;;
64959;SDS011;51487;52.266;10.542;2023-11-19T02:21:55;1.00;;;1.00;;
64959;SDS011;51487;52.266;10.542;2023-11-19T02:24:21;1.15;;;1.10;;
64959;SDS011;51487;52.266;10.542;2023-11-19T02:27:05;1.05;;;1.00;;
64959;SDS011;51487;52.266;10.542;2023-11-19T02:29:44;1.20;;;1.10;;
64959;SDS011;51487;52.266;10.542;2023-11-19T02:32:09;1.10;;;1.10;;
64959;SDS011;51487;52.266;10.542;2023-11-19T02:34:35;1.00;;;1.00;;
64959;SDS011;51487;52.266;10.542;2023-11-19T02:37:00;1.33;;;1.20;;
64959;SDS011;51487;52.266;10.542;2023-11-19T02:39:26;1.42;;;1.33;;
64959;SDS011;51487;52.266;10.542;2023-11-19T02:41:51;2.92;;;1.77;;
64959;SDS011;51487;52.266;10.542;2023-11-19T02:44:18;2.78;;;1.80;;
64959;SDS011;51487;52.266;10.542;2023-11-19T02:46:43;2.83;;;1.63;;
64959;SDS011;51487;52.266;10.542;2023-11-19T02:49:09;2.95;;;1.92;;
64959;SDS011;51487;52.266;10.542;2023-11-19T02:51:35;2.22;;;1.60;;
64959;SDS011;51487;52.266;10.542;2023-11-19T02:54:01;3.22;;;1.45;;
64959;SDS011;51487;52.266;10.542;2023-11-19T02:56:28;3.63;;;2.08;;
64959;SDS011;51487;52.266;10.542;2023-11-19T02:58:59;4.97;;;1.80;;
64959;SDS011;51487;52.266;10.542;2023-11-19T03:01:32;3.88;;;2.00;;
64959;SDS011;51487;52.266;10.542;2023-11-19T03:03:59;4.35;;;1.90;;
64959;SDS011;51487;52.266;10.542;2023-11-19T03:06:27;5.40;;;2.10;;
64959;SDS011;51487;52.266;10.542;2023-11-19T03:08:54;5.03;;;1.92;;
64959;SDS011;51487;52.266;10.542;2023-11-19T03:11:20;3.40;;;1.90;;
64959;SDS011;51487;52.266;10.542;2023-11-19T03:13:46;4.00;;;1.90;;
64959;SDS011;51487;52.266;10.542;2023-11-19T03:16:12;1.90;;;1.65;;
64959;SDS011;51487;52.266;10.542;2023-11-19T03:18:38;2.85;;;1.98;;
64959;SDS011;51487;52.266;10.542;2023-11-19T03:21:07;2.42;;;1.80;;
64959;SDS011;51487;52.266;10.542;2023-11-19T03:23:33;2.80;;;1.70;;
64959;SDS011;51487;52.266;10.542;2023-11-19T03:26:00;4.78;;;1.67;;
64959;SDS011;51487;52.266;10.542;2023-11-19T03:28:28;3.83;;;1.60;;
64959;SDS011;51487;52.266;10.542;2023-11-19T03:30:54;2.80;;;1.80;;
64959;SDS011;51487;52.266;10.542;2023-11-19T03:33:20;3.58;;;1.80;;
64959;SDS011;51487;52.266;10.542;2023-11-19T03:35:45;4.47;;;1.92;;
64959;SDS011;51487;52.266;10.542;2023-11-19T03:38:11;2.92;;;2.00;;
64959;SDS011;51487;52.266;10.542;2023-11-19T03:40:36;2.75;;;1.77;;
64959;SDS011;51487;52.266;10.542;2023-11-19T03:43:03;4.15;;;1.90;;
64959;SDS011;51487;52.266;10.542;2023-11-19T03:45:29;3.33;;;1.70;;
64959;SDS011;51487;52.266;10.542;2023-11-19T03:47:54;3.10;;;1.50;;
64959;SDS011;51487;52.266;10.542;2023-11-19T03:50:20;1.83;;;1.30;;
64959;SDS011;51487;52.266;10.542;2023-11-19T03:52:46;3.17;;;1.20;;
64959;SDS011;51487;52.266;10.542;2023-11-19T03:55:13;1.33;;;1.23;;
64959;SDS011;51487;52.266;10.542;2023-11-19T03:57:39;1.30;;;1.20;;
64959;SDS011;51487;52.266;10.542;2023-11-19T04:00:04;1.33;;;1.20;;
64959;SDS011;51487;52.266;10.542;2023-11-19T04:02:36;1.52;;;1.38;;
64959;SDS011;51487;52.266;10.542;2023-11-19T04:05:02;1.35;;;1.20;;
64959;SDS011;51487;52.266;10.542;2023-11-19T04:07:29;2.22;;;1.52;;
64959;SDS011;51487;52.266;10.542;2023-11-19T04:09:56;2.00;;;1.30;;
64959;SDS011;51487;52.266;10.542;2023-11-19T04:12:22;4.40;;;2.05;;
64959;SDS011;51487;52.266;10.542;2023-11-19T04:14:47;2.67;;;1.20;;
64959;SDS011;51487;52.266;10.542;2023-11-19T04:17:13;1.73;;;1.50;;
64959;SDS011;51487;52.266;10.542;2023-11-19T04:19:38;1.70;;;1.20;;
64959;SDS011;51487;52.266;10.542;2023-11-19T04:22:06;1.25;;;1.15;;
64959;SDS011;51487;52.266;10.542;2023-11-19T04:24:34;1.20;;;1.00;;
64959;SDS011;51487;52.266;10.542;2023-11-19T04:27:00;1.55;;;1.17;;
64959;SDS011;51487;52.266;10.542;2023-11-19T04:29:26;0.88;;;0.88;;
64959;SDS011;51487;52.266;10.542;2023-11-19T04:31:51;1.23;;;1.02;;
64959;SDS011;51487;52.266;10.542;2023-11-19T04:34:17;1.90;;;1.00;;
64959;SDS011;51487;52.266;10.542;2023-11-19T04:36:42;1.20;;;1.13;;
64959;SDS011;51487;52.266;10.542;2023-11-19T04:39:08;1.17;;;1.10;;
64959;SDS011;51487;52.266;10.542;2023-11-19T04:41:35;2.42;;;1.10;;
64959;SDS011;51487;52.266;10.542;2023-11-19T04:44:01;1.30;;;1.20;;
64959;SDS011;51487;52.266;10.542;2023-11-19T04:46:27;1.48;;;1.38;;
64959;SDS011;51487;52.266;10.542;2023-11-19T04:48:52;1.38;;;1.20;;
64959;SDS011;51487;52.266;10.542;2023-11-19T04:51:18;1.33;;;1.23;;
64959;SDS011;51487;52.266;10.542;2023-11-19T04:53:43;1.55;;;1.20;;
64959;SDS011;51487;52.266;10.542;2023-11-19T04:56:12;1.25;;;1.25;;
64959;SDS011;51487;52.266;10.542;2023-11-19T04:58:38;1.38;;;1.30;;
64959;SDS011;51487;52.266;10.542;2023-11-19T05:01:04;1.50;;;1.40;;
64959;SDS011;51487;52.266;10.542;2023-11-19T05:03:30;2.28;;;1.20;;
64959;SDS011;51487;52.266;10.542;2023-11-19T05:05:57;1.40;;;1.30;;
64959;SDS011;51487;52.266;10.542;2023-11-19T05:08:25;1.80;;;1.50;;
64959;SDS011;51487;52.266;10.542;2023-11-19T05:10:50;1.60;;;1.50;;
64959;SDS011;51487;52.266;10.542;2023-11-19T05:13:16;1.50;;;1.40;;
64959;SDS011;51487;52.266;10.542;2023-11-19T05:15:42;1.58;;;1.45;;
64959;SDS011;51487;52.266;10.542;2023-11-19T05:18:07;2.20;;;1.45;;
64959;SDS011;51487;52.266;10.542;2023-11-19T05:20:33;1.65;;;1.50;;
64959;SDS011;51487;52.266;10.542;2023-11-19T05:22:59;2.30;;;1.52;;
64959;SDS011;51487;52.266;10.542;2023-11-19T05:25:25;3.40;;;1.60;;
64959;SDS011;51487;52.266;10.542;2023-11-19T05:27:52;1.65;;;1.55;;
64959;SDS011;51487;52.266;10.542;2023-11-19T05:30:18;2.13;;;1.60;;
64959;SDS011;51487;52.266;10.542;2023-11-19T05:32:44;1.85;;;1.38;;
64959;SDS011;51487;52.266;10.542;2023-11-19T05:35:10;1.60;;;1.50;;
64959;SDS011;51487;52.266;10.542;2023-11-19T05:37:36;2.35;;;1.40;;
64959;SDS011;51487;52.266;10.542;2023-11-19T05:40:02;1.85;;;1.50;;
64959;SDS011;51487;52.266;10.542;2023-11-19T05:42:31;1.40;;;1.30;;
64959;SDS011;51487;52.266;10.542;2023-11-19T05:44:56;1.27;;;1.27;;
64959;SDS011;51487;52.266;10.542;2023-11-19T05:47:22;1.88;;;1.40;;
64959;SDS011;51487;52.266;10.542;2023-11-19T05:49:48;1.23;;;1.17;;
64959;SDS011;51487;52.266;10.542;2023-11-19T05:52:14;1.35;;;1.20;;
64959;SDS011;51487;52.266;10.542;2023-11-19T05:54:39;1.63;;;1.17;;
64959;SDS011;51487;52.266;10.542;2023-11-19T05:57:05;2.05;;;1.35;;
64959;SDS011;51487;52.266;10.542;2023-11-19T05:59:34;2.50;;;1.25;;
64959;SDS011;51487;52.266;10.542;2023-11-19T06:02:01;2.28;;;1.40;;
64959;SDS011;51487;52.266;10.542;2023-11-19T06:04:27;2.08;;;1.30;;
64959;SDS011;51487;52.266;10.542;2023-11-19T06:06:53;1.88;;;1.50;;
64959;SDS011;51487;52.266;10.542;2023-11-19T06:09:20;3.60;;;1.60;;
64959;SDS011;51487;52.266;10.542;2023-11-19T06:11:48;2.30;;;1.60;;
64959;SDS011;51487;52.266;10.542;2023-11-19T06:14:15;1.40;;;1.30;;
64959;SDS011;51487;52.266;10.542;2023-11-19T06:16:41;4.65;;;1.38;;
64959;SDS011;51487;52.266;10.542;2023-11-19T06:19:07;2.42;;;1.50;;
64959;SDS011;51487;52.266;10.542;2023-11-19T06:21:32;1.92;;;1.50;;
64959;SDS011;51487;52.266;10.542;2023-11-19T06:23:58;2.63;;;1.45;;
64959;SDS011;51487;52.266;10.542;2023-11-19T06:26:24;2.15;;;1.50;;
64959;SDS011;51487;52.266;10.542;2023-11-19T06:28:49;3.38;;;1.42;;
64959;SDS011;51487;52.266;10.542;2023-11-19T06:31:15;2.90;;;1.50;;
64959;SDS011;51487;52.266;10.542;2023-11-19T06:33:41;2.80;;;1.60;;
64959;SDS011;51487;52.266;10.542;2023-11-19T06:36:07;2.83;;;1.50;;
64959;SDS011;51487;52.266;10.542;2023-11-19T06:38:34;3.42;;;1.70;;
64959;SDS011;51487;52.266;10.542;2023-11-19T06:41:00;2.95;;;1.73;;
64959;SDS011;51487;52.266;10.542;2023-11-19T06:43:26;4.30;;;1.67;;
64959;SDS011;51487;52.266;10.542;2023-11-19T06:45:53;4.55;;;1.67;;
64959;SDS011;51487;52.266;10.542;2023-11-19T06:48:19;4.88;;;1.65;;
64959;SDS011;51487;52.266;10.542;2023-11-19T06:50:44;4.57;;;1.83;;
64959;SDS011;51487;52.266;10.542;2023-11-19T06:53:10;5.03;;;1.95;;
64959;SDS011;51487;52.266;10.542;2023-11-19T06:55:35;3.50;;;2.00;;
64959;SDS011;51487;52.266;10.542;2023-11-19T06:58:01;3.72;;;1.67;;
64959;SDS011;51487;52.266;10.542;2023-11-19T07:00:28;5.97;;;1.98;;
64959;SDS011;51487;52.266;10.542;2023-11-19T07:02:54;4.72;;;1.73;;
64959;SDS011;51487;52.266;10.542;2023-11-19T07:05:20;4.22;;;1.88;;
64959;SDS011;51487;52.266;10.542;2023-11-19T07:07:46;5.60;;;1.83;;
64959;SDS011;51487;52.266;10.542;2023-11-19T07:10:12;6.00;;;1.88;;
64959;SDS011;51487;52.266;10.542;2023-11-19T07:12:37;6.15;;;2.00;;
64959;SDS011;51487;52.266;10.542;2023-11-19T07:15:03;6.85;;;1.90;;
64959;SDS011;51487;52.266;10.542;2023-11-19T07:17:33;6.10;;;2.00;;
64959;SDS011;51487;52.266;10.542;2023-11-19T07:20:00;5.43;;;2.17;;
64959;SDS011;51487;52.266;10.542;2023-11-19T07:22:25;5.88;;;2.35;;
64959;SDS011;51487;52.266;10.542;2023-11-19T07:24:51;8.98;;;2.03;;
64959;SDS011;51487;52.266;10.542;2023-11-19T07:27:18;4.28;;;2.33;;
64959;SDS011;51487;52.266;10.542;2023-11-19T07:29:44;7.10;;;2.15;;
64959;SDS011;51487;52.266;10.542;2023-11-19T07:32:10;11.50;;;2.00;;
64959;SDS011;51487;52.266;10.542;2023-11-19T07:34:36;6.38;;;1.77;;
64959;SDS011;51487;52.266;10.542;2023-11-19T07:37:01;4.38;;;1.60;;
64959;SDS011;51487;52.266;10.542;2023-11-19T07:39:28;3.78;;;1.77;;
64959;SDS011;51487;52.266;10.542;2023-11-19T07:41:54;4.82;;;2.10;;
64959;SDS011;51487;52.266;10.542;2023-11-19T07:44:20;6.53;;;1.83;;
64959;SDS011;51487;52.266;10.542;2023-11-19T07:46:46;3.90;;;1.75;;
64959;SDS011;51487;52.266;10.542;2023-11-19T07:49:13;5.50;;;1.80;;
64959;SDS011;51487;52.266;10.542;2023-11-19T07:51:39;4.20;;;1.90;;
64959;SDS011;51487;52.266;10.542;2023-11-19T07:54:05;5.22;;;2.47;;
64959;SDS011;51487;52.266;10.542;2023-11-19T07:56:34;7.55;;;2.40;;
64959;SDS011;51487;52.266;10.542;2023-11-19T07:59:00;7.00;;;1.90;;
64959;SDS011;51487;52.266;10.542;2023-11-19T08:01:27;7.13;;;1.95;;
64959;SDS011;51487;52.266;10.542;2023-11-19T08:03:52;8.15;;;2.20;;
64959;SDS011;51487;52.266;10.542;2023-11-19T08:06:18;7.93;;;2.40;;
64959;SDS011;51487;52.266;10.542;2023-11-19T08:08:43;8.15;;;2.28;;
64959;SDS011;51487;52.266;10.542;2023-11-19T08:11:10;5.68;;;2.00;;
64959;SDS011;51487;52.266;10.542;2023-11-19T08:13:35;9.45;;;2.53;;
64959;SDS011;51487;52.266;10.542;2023-11-19T08:16:01;7.35;;;2.35;;
64959;SDS011;51487;52.266;10.542;2023-11-19T08:18:27;10.13;;;2.38;;
64959;SDS011;51487;52.266;10.542;2023-11-19T08:20:52;10.73;;;2.70;;
64959;SDS011;51487;52.266;10.542;2023-11-19T08:23:19;9.10;;;2.95;;
64959;SDS011;51487;52.266;10.542;2023-11-19T08:25:45;14.88;;;3.10;;
64959;SDS011;51487;52.266;10.542;2023-11-19T08:28:11;9.48;;;3.20;;
64959;SDS011;51487;52.266;10.542;2023-11-19T08:30:37;13.55;;;3.35;;
64959;SDS011;51487;52.266;10.542;2023-11-19T08:33:03;13.98;;;3.30;;
64959;SDS011;51487;52.266;10.542;2023-11-19T08:35:29;22.92;;;3.78;;
64959;SDS011;51487;52.266;10.542;2023-11-19T08:37:55;13.57;;;3.45;;
64959;SDS011;51487;52.266;10.542;2023-11-19T08:40:20;11.45;;;3.40;;
64959;SDS011;51487;52.266;10.542;2023-11-19T08:42:46;19.38;;;3.58;;
64959;SDS011;51487;52.266;10.542;2023-11-19T08:45:11;15.20;;;3.10;;
64959;SDS011;51487;52.266;10.542;2023-11-19T08:47:37;9.57;;;2.92;;
64959;SDS011;51487;52.266;10.542;2023-11-19T08:50:03;17.00;;;4.57;;
64959;SDS011;51487;52.266;10.542;2023-11-19T08:52:29;16.67;;;3.78;;
64959;SDS011;51487;52.266;10.542;2023-11-19T08:54:55;13.88;;;3.25;;
64959;SDS011;51487;52.266;10.542;2023-11-19T08:57:21;11.73;;;2.60;;
64959;SDS011;51487;52.266;10.542;2023-11-19T08:59:46;12.48;;;3.17;;
64959;SDS011;51487;52.266;10.542;2023-11-19T09:02:12;14.32;;;3.10;;
64959;SDS011;51487;52.266;10.542;2023-11-19T09:04:37;14.02;;;3.20;;
64959;SDS011;51487;52.266;10.542;2023-11-19T09:07:03;17.40;;;3.40;;
64959;SDS011;51487;52.266;10.542;2023-11-19T09:09:29;15.60;;;3.45;;
64959;SDS011;51487;52.266;10.542;2023-11-19T09:11:55;16.90;;;4.10;;
64959;SDS011;51487;52.266;10.542;2023-11-19T09:14:20;16.25;;;3.80;;
64959;SDS011;51487;52.266;10.542;2023-11-19T09:16:50;17.13;;;3.67;;
64959;SDS011;51487;52.266;10.542;2023-11-19T09:19:16;18.55;;;3.97;;
64959;SDS011;51487;52.266;10.542;2023-11-19T09:21:42;16.08;;;3.80;;
64959;SDS011;51487;52.266;10.542;2023-11-19T09:24:08;18.35;;;3.55;;
64959;SDS011;51487;52.266;10.542;2023-11-19T09:26:34;19.60;;;3.80;;
64959;SDS011;51487;52.266;10.542;2023-11-19T09:29:01;23.20;;;4.70;;
64959;SDS011;51487;52.266;10.542;2023-11-19T09:31:27;21.20;;;3.85;;
64959;SDS011;51487;52.266;10.542;2023-11-19T09:33:53;18.33;;;3.60;;
64959;SDS011;51487;52.266;10.542;2023-11-19T09:36:18;14.45;;;3.60;;
64959;SDS011;51487;52.266;10.542;2023-11-19T09:38:44;19.30;;;3.40;;
64959;SDS011;51487;52.266;10.542;2023-11-19T09:41:10;22.98;;;4.55;;
64959;SDS011;51487;52.266;10.542;2023-11-19T09:43:41;20.15;;;4.32;;
64959;SDS011;51487;52.266;10.542;2023-11-19T09:46:11;15.93;;;4.15;;
64959;SDS011;51487;52.266;10.542;2023-11-19T09:48:40;16.13;;;3.83;;
64959;SDS011;51487;52.266;10.542;2023-11-19T09:51:07;16.33;;;3.67;;
64959;SDS011;51487;52.266;10.542;2023-11-19T09:53:35;15.85;;;4.15;;
64959;SDS011;51487;52.266;10.542;2023-11-19T09:56:02;15.70;;;4.25;;
64959;SDS011;51487;52.266;10.542;2023-11-19T09:58:31;14.85;;;3.63;;
64959;SDS011;51487;52.266;10.542;2023-11-19T10:00:58;13.40;;;3.33;;
64959;SDS011;51487;52.266;10.542;2023-11-19T10:03:28;21.45;;;4.80;;
64959;SDS011;51487;52.266;10.542;2023-11-19T10:06:00;17.42;;;3.80;;
64959;SDS011;51487;52.266;10.542;2023-11-19T10:08:27;18.85;;;3.72;;
64959;SDS011;51487;52.266;10.542;2023-11-19T10:10:52;18.67;;;3.47;;
64959;SDS011;51487;52.266;10.542;2023-11-19T10:13:18;16.92;;;4.15;;
64959;SDS011;51487;52.266;10.542;2023-11-19T10:15:44;19.65;;;4.53;;
64959;SDS011;51487;52.266;10.542;2023-11-19T10:18:11;15.65;;;4.32;;
64959;SDS011;51487;52.266;10.542;2023-11-19T10:20:40;20.33;;;3.60;;
64959;SDS011;51487;52.266;10.542;2023-11-19T10:23:06;19.33;;;3.85;;
64959;SDS011;51487;52.266;10.542;2023-11-19T10:25:33;15.43;;;3.78;;
64959;SDS011;51487;52.266;10.542;2023-11-19T10:27:59;17.90;;;4.80;;
64959;SDS011;51487;52.266;10.542;2023-11-19T10:30:26;16.45;;;3.33;;
64959;SDS011;51487;52.266;10.542;2023-11-19T10:33:12;20.33;;;4.30;;
64959;SDS011;51487;52.266;10.542;2023-11-19T10:35:52;21.13;;;3.88;;
64959;SDS011;51487;52.266;10.542;2023-11-19T10:38:22;16.27;;;3.78;;
64959;SDS011;51487;52.266;10.542;2023-11-19T10:40:49;13.82;;;3.17;;
64959;SDS011;51487;52.266;10.542;2023-11-19T10:43:17;16.95;;;4.45;;
64959;SDS011;51487;52.266;10.542;2023-11-19T10:45:43;16.05;;;3.65;;
64959;SDS011;51487;52.266;10.542;2023-11-19T10:48:09;17.65;;;3.53;;
64959;SDS011;51487;52.266;10.542;2023-11-19T10:50:37;15.88;;;3.55;;
64959;SDS011;51487;52.266;10.542;2023-11-19T10:53:05;26.50;;;4.30;;
64959;SDS011;51487;52.266;10.542;2023-11-19T10:55:36;16.45;;;4.32;;
64959;SDS011;51487;52.266;10.542;2023-11-19T10:58:06;18.63;;;4.75;;
64959;SDS011;51487;52.266;10.542;2023-11-19T11:00:54;15.38;;;3.35;;
64959;SDS011;51487;52.266;10.542;2023-11-19T11:03:24;15.65;;;4.35;;
64959;SDS011;51487;52.266;10.542;2023-11-19T11:05:52;16.45;;;4.18;;
64959;SDS011;51487;52.266;10.542;2023-11-19T11:08:19;13.70;;;3.28;;
64959;SDS011;51487;52.266;10.542;2023-11-19T11:10:48;16.75;;;3.78;;
64959;SDS011;51487;52.266;10.542;2023-11-19T11:13:22;14.48;;;2.83;;
64959;SDS011;51487;52.266;10.542;2023-11-19T11:15:49;12.65;;;3.33;;
64959;SDS011;51487;52.266;10.542;2023-11-19T11:18:16;12.40;;;2.80;;
64959;SDS011;51487;52.266;10.542;2023-11-19T11:20:44;12.40;;;3.42;;
64959;SDS011;51487;52.266;10.542;2023-11-19T11:29:16;11.70;;;3.05;;
64959;SDS011;51487;52.266;10.542;2023-11-19T11:37:49;12.80;;;4.63;;
64959;SDS011;51487;52.266;10.542;2023-11-19T11:40:24;15.65;;;3.38;;
64959;SDS011;51487;52.266;10.542;2023-11-19T11:42:51;15.10;;;3.78;;
64959;SDS011;51487;52.266;10.542;2023-11-19T11:45:17;11.68;;;3.35;;
64959;SDS011;51487;52.266;10.542;2023-11-19T11:50:19;15.27;;;3.28;;
64959;SDS011;51487;52.266;10.542;2023-11-19T11:56:08;19.75;;;4.05;;
64959;SDS011;51487;52.266;10.542;2023-11-19T11:58:21;17.98;;;3.53;;
64959;SDS011;51487;52.266;10.542;2023-11-19T12:00:51;17.42;;;3.80;;
64959;SDS011;51487;52.266;10.542;2023-11-19T12:03:19;17.48;;;3.80;;
64959;SDS011;51487;52.266;10.542;2023-11-19T12:05:47;18.92;;;5.13;;
64959;SDS011;51487;52.266;10.542;2023-11-19T12:08:14;23.90;;;4.03;;
64959;SDS011;51487;52.266;10.542;2023-11-19T12:10:49;19.40;;;4.43;;
64959;SDS011;51487;52.266;10.542;2023-11-19T12:13:20;12.05;;;3.38;;
64959;SDS011;51487;52.266;10.542;2023-11-19T12:18:31;18.98;;;4.38;;
64959;SDS011;51487;52.266;10.542;2023-11-19T12:20:58;18.05;;;4.03;;
64959;SDS011;51487;52.266;10.542;2023-11-19T12:23:30;16.55;;;4.53;;
64959;SDS011;51487;52.266;10.542;2023-11-19T12:25:57;18.67;;;4.18;;
64959;SDS011;51487;52.266;10.542;2023-11-19T12:28:23;20.73;;;4.75;;
64959;SDS011;51487;52.266;10.542;2023-11-19T12:30:51;15.98;;;3.72;;
64959;SDS011;51487;52.266;10.542;2023-11-19T12:33:21;18.33;;;4.70;;
64959;SDS011;51487;52.266;10.542;2023-11-19T12:35:47;22.83;;;4.30;;
64959;SDS011;51487;52.266;10.542;2023-11-19T12:38:20;14.38;;;3.90;;
64959;SDS011;51487;52.266;10.542;2023-11-19T12:40:47;18.15;;;4.28;;
64959;SDS011;51487;52.266;10.542;2023-11-19T12:43:30;19.15;;;3.88;;
64959;SDS011;51487;52.266;10.542;2023-11-19T12:45:56;16.33;;;4.40;;
64959;SDS011;51487;52.266;10.542;2023-11-19T12:48:23;18.30;;;4.20;;
64959;SDS011;51487;52.266;10.542;2023-11-19T12:50:52;22.48;;;4.15;;
64959;SDS011;51487;52.266;10.542;2023-11-19T12:53:18;18.42;;;4.13;;
64959;SDS011;51487;52.266;10.542;2023-11-19T12:55:45;18.10;;;3.90;;
64959;SDS011;51487;52.266;10.542;2023-11-19T12:58:11;18.48;;;4.10;;
64959;SDS011;51487;52.266;10.542;2023-11-19T13:01:08;20.77;;;4.35;;
64959;SDS011;51487;52.266;10.542;2023-11-19T13:03:37;16.88;;;3.72;;
64959;SDS011;51487;52.266;10.542;2023-11-19T13:06:13;19.50;;;4.45;;
64959;SDS011;51487;52.266;10.542;2023-11-19T13:08:47;19.52;;;4.65;;
64959;SDS011;51487;52.266;10.542;2023-11-19T13:11:29;17.27;;;4.65;;
64959;SDS011;51487;52.266;10.542;2023-11-19T13:14:06;16.58;;;4.05;;
64959;SDS011;51487;52.266;10.542;2023-11-19T13:16:37;17.50;;;3.65;;
64959;SDS011;51487;52.266;10.542;2023-11-19T13:19:03;18.55;;;3.90;;
64959;SDS011;51487;52.266;10.542;2023-11-19T13:21:29;15.45;;;3.42;;
64959;SDS011;51487;52.266;10.542;2023-11-19T13:23:56;20.67;;;4.07;;
64959;SDS011;51487;52.266;10.542;2023-11-19T13:26:22;20.33;;;4.15;;
64959;SDS011;51487;52.266;10.542;2023-11-19T13:28:48;24.00;;;4.63;;
64959;SDS011;51487;52.266;10.542;2023-11-19T13:31:14;20.33;;;4.05;;
64959;SDS011;51487;52.266;10.542;2023-11-19T13:33:40;20.52;;;4.35;;
64959;SDS011;51487;52.266;10.542;2023-11-19T13:36:06;24.38;;;4.47;;
64959;SDS011;51487;52.266;10.542;2023-11-19T13:38:33;22.30;;;5.15;;
64959;SDS011;51487;52.266;10.542;2023-11-19T13:41:00;20.00;;;3.78;;
64959;SDS011;51487;52.266;10.542;2023-11-19T13:43:27;17.02;;;4.50;;
64959;SDS011;51487;52.266;10.542;2023-11-19T13:45:54;19.00;;;4.57;;
64959;SDS011;51487;52.266;10.542;2023-11-19T13:48:20;12.38;;;3.42;;
64959;SDS011;51487;52.266;10.542;2023-11-19T13:50:46;13.35;;;3.92;;
64959;SDS011;51487;52.266;10.542;2023-11-19T13:53:12;18.67;;;3.70;;
64959;SDS011;51487;52.266;10.542;2023-11-19T13:55:37;17.35;;;4.30;;
64959;SDS011;51487;52.266;10.542;2023-11-19T13:58:03;18.65;;;4.35;;
64959;SDS011;51487;52.266;10.542;2023-11-19T14:00:29;15.80;;;4.40;;
64959;SDS011;51487;52.266;10.542;2023-11-19T14:02:54;14.75;;;3.90;;
64959;SDS011;51487;52.266;10.542;2023-11-19T14:05:20;16.65;;;3.67;;
64959;SDS011;51487;52.266;10.542;2023-11-19T14:07:45;16.27;;;4.13;;
64959;SDS011;51487;52.266;10.542;2023-11-19T14:10:14;19.45;;;4.22;;
64959;SDS011;51487;52.266;10.542;2023-11-19T14:12:40;15.60;;;4.00;;
64959;SDS011;51487;52.266;10.542;2023-11-19T14:15:07;17.20;;;4.32;;
64959;SDS011;51487;52.266;10.542;2023-11-19T14:17:34;20.15;;;4.05;;
64959;SDS011;51487;52.266;10.542;2023-11-19T14:20:02;15.18;;;3.75;;
64959;SDS011;51487;52.266;10.542;2023-11-19T14:22:37;17.70;;;3.97;;
64959;SDS011;51487;52.266;10.542;2023-11-19T14:25:07;15.68;;;3.50;;
64959;SDS011;51487;52.266;10.542;2023-11-19T14:27:37;18.65;;;4.13;;
64959;SDS011;51487;52.266;10.542;2023-11-19T14:30:06;14.23;;;3.88;;
64959;SDS011;51487;52.266;10.542;2023-11-19T14:35:02;15.27;;;3.88;;
64959;SDS011;51487;52.266;10.542;2023-11-19T14:37:28;19.25;;;4.25;;
64959;SDS011;51487;52.266;10.542;2023-11-19T14:39:57;16.70;;;4.40;;
64959;SDS011;51487;52.266;10.542;2023-11-19T14:42:24;15.98;;;4.13;;
64959;SDS011;51487;52.266;10.542;2023-11-19T14:44:53;21.30;;;5.38;;
64959;SDS011;51487;52.266;10.542;2023-11-19T14:47:21;17.52;;;4.13;;
64959;SDS011;51487;52.266;10.542;2023-11-19T14:49:47;18.40;;;4.68;;